Time;durP1;ratioP1;P1;durP2;ratioP2;P2;SDS_P1;SDS_P2;PMS_P1;PMS_P2;Temp;Humidity;BMP_temperature;BMP_pressure;BME280_temperature;BME280_humidity;BME280_pressure;Samples;Min_cycle;Max_cycle;Signal;HPM_P1;HPM_P2
2021/03/22 00:00:50;;;;;;;18.30;5.40;;;5.70;99.90;;;;;;5016057;28;20442;-72
2021/03/22 00:03:18;;;;;;;15.47;4.37;;;5.60;99.90;;;;;;5016815;28;20411;-72
2021/03/22 00:05:43;;;;;;;12.40;5.50;;;5.60;99.90;;;;;;5015733;28;20458;-72
2021/03/22 00:08:09;;;;;;;11.60;4.53;;;5.70;99.90;;;;;;5015971;28;20418;-72
2021/03/22 00:10:37;;;;;;;15.07;4.53;;;5.60;99.90;;;;;;5016432;28;20221;-72
2021/03/22 00:13:03;;;;;;;17.93;4.17;;;5.50;99.90;;;;;;5015749;28;20202;-72
2021/03/22 00:15:31;;;;;;;13.50;5.70;;;5.40;99.90;;;;;;5015834;28;20416;-73
2021/03/22 00:17:57;;;;;;;13.23;4.77;;;5.40;99.90;;;;;;5014581;28;20469;-73
2021/03/22 00:20:24;;;;;;;17.97;5.13;;;5.40;99.90;;;;;;5015221;28;20439;-73
2021/03/22 00:22:49;;;;;;;12.40;4.50;;;5.30;99.90;;;;;;5015677;28;20479;-73
2021/03/22 00:25:17;;;;;;;11.60;4.20;;;5.30;99.90;;;;;;5015785;28;20417;-71
2021/03/22 00:27:43;;;;;;;11.00;4.00;;;5.40;99.90;;;;;;5015687;28;20182;-71
2021/03/22 00:30:11;;;;;;;15.43;4.47;;;5.30;99.90;;;;;;5015582;28;20966;-70
2021/03/22 00:32:37;;;;;;;12.23;4.07;;;5.30;99.90;;;;;;5015262;28;20198;-72
2021/03/22 00:35:03;;;;;;;16.03;4.67;;;5.20;99.90;;;;;;5015823;28;20572;-72
2021/03/22 00:37:29;;;;;;;12.00;4.00;;;5.20;99.90;;;;;;5013881;28;20234;-72
2021/03/22 00:39:55;;;;;;;14.00;5.20;;;5.20;99.90;;;;;;5017968;28;20450;-73
2021/03/22 00:42:20;;;;;;;13.20;3.33;;;5.20;99.90;;;;;;5032845;28;20509;-72
2021/03/22 00:44:49;;;;;;;13.93;4.17;;;5.20;99.90;;;;;;5033785;28;20241;-73
2021/03/22 00:47:15;;;;;;;20.57;4.83;;;5.20;99.90;;;;;;5017091;28;20637;-72
2021/03/22 00:49:41;;;;;;;14.10;5.03;;;5.30;99.90;;;;;;5015068;28;20501;-72
2021/03/22 00:52:10;;;;;;;13.77;5.33;;;5.40;99.90;;;;;;5016530;28;20706;-72
2021/03/22 00:54:37;;;;;;;27.50;5.73;;;5.40;99.90;;;;;;5015143;28;20239;-71
2021/03/22 00:57:03;;;;;;;9.53;4.10;;;5.30;99.90;;;;;;5014042;28;20417;-71
2021/03/22 00:59:29;;;;;;;13.10;3.87;;;5.30;99.90;;;;;;5027899;28;20798;-72
2021/03/22 01:01:54;;;;;;;15.60;4.37;;;5.30;99.90;;;;;;5032951;28;20494;-73
2021/03/22 01:04:20;;;;;;;11.20;4.83;;;5.30;99.90;;;;;;5028325;28;20215;-72
2021/03/22 01:06:45;;;;;;;22.77;4.63;;;5.30;99.90;;;;;;5014255;28;20270;-72
2021/03/22 01:09:11;;;;;;;12.83;5.23;;;5.30;99.90;;;;;;5015029;28;20630;-72
2021/03/22 01:11:36;;;;;;;10.37;4.63;;;5.30;99.90;;;;;;5015314;28;20590;-72
2021/03/22 01:14:02;;;;;;;11.23;3.90;;;5.20;99.90;;;;;;5017266;28;20221;-72
2021/03/22 01:16:34;;;;;;;13.27;5.60;;;5.20;99.90;;;;;;5013413;28;20175;-72
2021/03/22 01:19:05;;;;;;;17.77;5.20;;;5.20;99.90;;;;;;5014365;28;20885;-72
2021/03/22 01:21:37;;;;;;;13.43;4.23;;;5.20;99.90;;;;;;5024141;28;20454;-72
2021/03/22 01:24:03;;;;;;;16.10;4.90;;;5.20;99.90;;;;;;5033124;28;20451;-72
2021/03/22 01:26:33;;;;;;;14.67;4.77;;;5.10;99.90;;;;;;5033147;28;20468;-71
2021/03/22 01:28:59;;;;;;;9.13;3.90;;;5.10;99.90;;;;;;5027784;28;20781;-72
2021/03/22 01:31:26;;;;;;;9.10;4.10;;;5.20;99.90;;;;;;5014477;28;20447;-72
2021/03/22 01:33:53;;;;;;;13.63;4.60;;;5.10;99.90;;;;;;5017637;28;20493;-71
2021/03/22 01:36:26;;;;;;;15.70;5.33;;;5.10;99.90;;;;;;5023386;28;20468;-71
2021/03/22 01:38:54;;;;;;;19.03;4.10;;;5.20;99.90;;;;;;5015051;28;20406;-71
2021/03/22 01:41:37;;;;;;;19.00;4.40;;;5.10;99.90;;;;;;5014413;28;20473;-71
2021/03/22 01:44:20;;;;;;;10.77;3.97;;;5.10;99.90;;;;;;5016085;28;20525;-71
2021/03/22 01:46:54;;;;;;;16.50;4.40;;;5.20;99.90;;;;;;5015718;28;20423;-71
2021/03/22 01:49:21;;;;;;;15.37;3.97;;;5.20;99.90;;;;;;5014339;28;20433;-71
2021/03/22 01:51:47;;;;;;;14.33;3.87;;;5.30;99.90;;;;;;5013211;28;20544;-71
2021/03/22 01:54:14;;;;;;;13.73;4.60;;;5.30;99.90;;;;;;5014602;28;20445;-71
2021/03/22 01:56:50;;;;;;;15.77;3.70;;;5.30;99.90;;;;;;5015237;28;20431;-71
2021/03/22 01:59:19;;;;;;;13.43;3.73;;;5.10;99.90;;;;;;5014584;28;20491;-71
2021/03/22 02:01:49;;;;;;;13.87;4.50;;;5.10;99.90;;;;;;5014706;28;20469;-71
2021/03/22 02:04:16;;;;;;;14.37;4.27;;;5.20;99.90;;;;;;5019275;28;20432;-71
2021/03/22 02:06:41;;;;;;;16.13;6.10;;;5.10;99.90;;;;;;5023719;28;20623;-71
2021/03/22 02:09:07;;;;;;;18.83;4.77;;;5.10;99.90;;;;;;5018611;28;20500;-73
2021/03/22 02:11:35;;;;;;;12.50;5.20;;;5.10;99.90;;;;;;5014750;28;20783;-72
2021/03/22 02:14:06;;;;;;;15.17;5.10;;;5.10;99.90;;;;;;5016298;28;20226;-72
2021/03/22 02:17:00;;;;;;;11.50;4.40;;;5.10;99.90;;;;;;5015265;28;20444;-72
2021/03/22 02:20:03;;;;;;;11.50;4.57;;;5.10;99.90;;;;;;5024170;28;20422;-72
2021/03/22 02:23:04;;;;;;;14.10;4.90;;;5.10;99.90;;;;;;5017997;28;20433;-72
2021/03/22 02:25:44;;;;;;;13.80;5.10;;;5.10;99.90;;;;;;5021281;28;20441;-72
2021/03/22 02:28:26;;;;;;;21.60;5.53;;;5.10;99.90;;;;;;5038976;28;20480;-71
2021/03/22 02:31:18;;;;;;;10.53;4.77;;;5.00;99.90;;;;;;5005821;28;20455;-71
2021/03/22 02:33:52;;;;;;;11.13;4.10;;;5.10;99.90;;;;;;5008339;28;20460;-71
2021/03/22 02:36:39;;;;;;;8.00;3.73;;;5.00;99.90;;;;;;5021952;28;20468;-72
2021/03/22 02:39:05;;;;;;;12.03;4.77;;;5.00;99.90;;;;;;5018071;28;20476;-72
2021/03/22 02:41:45;;;;;;;14.60;4.57;;;5.00;99.90;;;;;;5022952;28;20459;-71
2021/03/22 02:44:34;;;;;;;18.77;5.47;;;5.00;99.90;;;;;;5036261;28;20192;-72
2021/03/22 02:47:03;;;;;;;11.40;4.03;;;5.00;99.90;;;;;;5037936;28;20407;-72
2021/03/22 02:49:33;;;;;;;10.37;5.17;;;4.90;99.90;;;;;;5035132;28;20528;-71
2021/03/22 02:52:08;;;;;;;19.53;4.57;;;4.90;99.90;;;;;;5024220;28;20491;-71
2021/03/22 02:54:45;;;;;;;16.73;4.60;;;5.00;99.90;;;;;;5019342;28;20514;-71
2021/03/22 02:57:15;;;;;;;12.23;4.90;;;4.90;99.90;;;;;;5035910;28;20412;-71
2021/03/22 02:59:58;;;;;;;20.43;4.77;;;4.90;99.90;;;;;;5033604;28;20428;-71
2021/03/22 03:02:27;;;;;;;17.97;4.93;;;4.90;99.90;;;;;;5036609;28;20443;-71
2021/03/22 03:04:53;;;;;;;17.70;5.53;;;4.90;99.90;;;;;;5022275;28;20416;-71
2021/03/22 03:07:27;;;;;;;13.57;5.30;;;4.90;99.90;;;;;;5024438;28;20471;-71
2021/03/22 03:09:52;;;;;;;16.30;5.90;;;5.00;99.90;;;;;;5015903;28;20448;-71
2021/03/22 03:12:24;;;;;;;26.60;9.17;;;5.00;99.90;;;;;;5018296;28;20905;-72
2021/03/22 03:14:53;;;;;;;14.40;6.50;;;4.90;99.90;;;;;;5018564;28;20225;-72
2021/03/22 03:17:20;;;;;;;19.67;6.83;;;4.80;99.90;;;;;;5017595;28;20425;-72
2021/03/22 03:19:47;;;;;;;17.33;7.40;;;4.80;99.90;;;;;;5015390;28;20478;-72
2021/03/22 03:22:13;;;;;;;18.50;7.90;;;4.90;99.90;;;;;;5017955;28;20447;-72
2021/03/22 03:24:40;;;;;;;18.77;8.03;;;4.90;99.90;;;;;;5016789;28;20414;-72
2021/03/22 03:27:07;;;;;;;17.87;7.27;;;4.90;99.90;;;;;;5017197;28;20626;-72
2021/03/22 03:29:33;;;;;;;15.57;8.23;;;4.90;99.90;;;;;;5026377;28;20438;-72
2021/03/22 03:31:58;;;;;;;19.20;7.40;;;4.80;99.90;;;;;;5035253;28;20427;-72
2021/03/22 03:34:25;;;;;;;18.00;8.27;;;4.90;99.90;;;;;;5023811;28;20209;-72
2021/03/22 03:36:50;;;;;;;18.33;7.93;;;4.90;99.90;;;;;;5027584;28;20503;-72
2021/03/22 03:39:16;;;;;;;25.27;9.27;;;4.90;99.90;;;;;;5018498;28;20508;-72
2021/03/22 03:41:41;;;;;;;22.23;10.10;;;4.90;99.90;;;;;;5035871;28;20625;-71
2021/03/22 03:44:11;;;;;;;18.00;8.20;;;4.90;99.90;;;;;;5035056;28;20179;-72
2021/03/22 03:46:38;;;;;;;21.00;8.60;;;4.90;99.90;;;;;;5034817;28;20173;-72
2021/03/22 03:49:03;;;;;;;22.43;9.60;;;4.90;99.90;;;;;;5036389;28;20472;-72
2021/03/22 03:51:31;;;;;;;18.53;9.40;;;4.90;99.90;;;;;;5034459;28;20447;-72
2021/03/22 03:53:57;;;;;;;18.90;9.37;;;4.90;99.90;;;;;;5022943;28;20460;-71
2021/03/22 03:56:22;;;;;;;19.83;9.13;;;4.80;99.90;;;;;;5016390;28;20404;-72
2021/03/22 03:58:48;;;;;;;17.63;12.67;;;4.80;99.90;;;;;;5016457;28;20418;-72
2021/03/22 04:01:13;;;;;;;21.17;8.90;;;4.80;99.90;;;;;;5016778;28;20245;-72
2021/03/22 04:03:40;;;;;;;22.90;10.40;;;4.80;99.90;;;;;;5017666;28;20620;-72
2021/03/22 04:06:08;;;;;;;15.50;9.80;;;4.90;99.90;;;;;;5024029;28;20193;-72
2021/03/22 04:08:36;;;;;;;21.50;10.70;;;4.90;99.90;;;;;;5018028;28;20421;-71
2021/03/22 04:11:04;;;;;;;18.30;9.70;;;4.90;99.90;;;;;;5016579;28;20430;-71
2021/03/22 04:13:32;;;;;;;24.73;10.50;;;5.00;99.90;;;;;;5017296;28;20461;-72
2021/03/22 04:15:58;;;;;;;17.23;9.87;;;5.00;99.90;;;;;;5016411;28;20784;-71
2021/03/22 04:18:24;;;;;;;20.73;10.30;;;4.90;99.90;;;;;;5016189;28;20415;-71
2021/03/22 04:20:49;;;;;;;17.10;9.10;;;4.90;99.90;;;;;;5024013;28;20932;-71
2021/03/22 04:23:15;;;;;;;17.60;8.90;;;4.90;99.90;;;;;;5035842;28;20652;-71
2021/03/22 04:25:40;;;;;;;18.10;8.97;;;5.00;99.90;;;;;;5020261;28;20256;-70
2021/03/22 04:28:06;;;;;;;15.20;9.03;;;5.00;99.90;;;;;;5015662;28;20428;-71
2021/03/22 04:30:32;;;;;;;15.47;9.20;;;5.10;99.90;;;;;;5015464;28;20215;-72
2021/03/22 04:32:57;;;;;;;15.60;8.77;;;5.20;99.90;;;;;;5015944;28;20727;-72
2021/03/22 04:35:25;;;;;;;16.20;8.63;;;5.20;99.90;;;;;;5018790;28;20198;-72
2021/03/22 04:37:51;;;;;;;17.73;8.77;;;5.20;99.90;;;;;;5024433;28;20738;-72
2021/03/22 04:40:21;;;;;;;16.13;8.47;;;5.10;99.90;;;;;;5015304;28;20442;-72
2021/03/22 04:42:47;;;;;;;22.87;9.20;;;5.10;99.90;;;;;;5015527;28;20420;-72
2021/03/22 04:45:13;;;;;;;17.40;8.30;;;5.20;99.90;;;;;;5015544;28;20449;-72
2021/03/22 04:47:39;;;;;;;19.70;10.83;;;5.10;99.90;;;;;;5006881;28;20790;-72
2021/03/22 04:50:06;;;;;;;15.40;8.53;;;5.00;99.90;;;;;;5016002;28;20429;-72
2021/03/22 04:52:31;;;;;;;15.73;9.50;;;5.00;99.90;;;;;;5035574;28;20172;-73
2021/03/22 04:54:57;;;;;;;18.27;8.73;;;5.00;99.90;;;;;;5034895;28;20460;-71
2021/03/22 04:57:28;;;;;;;17.43;8.47;;;4.90;99.90;;;;;;5009681;28;20264;-71
2021/03/22 04:59:54;;;;;;;29.03;10.37;;;4.90;99.90;;;;;;5029262;28;20603;-71
2021/03/22 05:02:20;;;;;;;19.40;8.87;;;4.90;99.90;;;;;;5007591;28;20452;-72
2021/03/22 05:04:46;;;;;;;16.63;9.43;;;4.80;99.90;;;;;;5003299;28;20424;-71
2021/03/22 05:07:13;;;;;;;19.03;8.90;;;4.80;99.90;;;;;;5010490;28;20346;-72
2021/03/22 05:09:38;;;;;;;24.00;9.20;;;4.90;99.90;;;;;;5006984;28;20418;-72
2021/03/22 05:12:05;;;;;;;22.33;9.37;;;4.90;99.90;;;;;;5015943;28;20993;-72
2021/03/22 05:14:31;;;;;;;22.67;9.20;;;5.00;99.90;;;;;;5010829;28;20593;-72
2021/03/22 05:16:56;;;;;;;23.23;9.87;;;5.00;99.90;;;;;;5004078;28;20434;-72
2021/03/22 05:19:22;;;;;;;17.73;9.73;;;5.00;99.90;;;;;;5028172;28;20180;-72
2021/03/22 05:21:48;;;;;;;25.03;10.50;;;4.80;99.90;;;;;;5033574;28;20202;-71
2021/03/22 05:24:13;;;;;;;18.33;9.60;;;4.80;99.90;;;;;;5033825;28;20181;-70
2021/03/22 05:26:39;;;;;;;22.53;9.90;;;4.90;99.90;;;;;;5028433;28;20183;-70
2021/03/22 05:29:04;;;;;;;19.27;10.40;;;4.80;99.90;;;;;;5023089;28;20198;-71
2021/03/22 05:31:35;;;;;;;27.80;11.50;;;4.80;99.90;;;;;;5017567;28;20201;-71
2021/03/22 05:34:02;;;;;;;22.37;11.17;;;4.80;99.90;;;;;;5034172;28;20242;-71
2021/03/22 05:36:28;;;;;;;17.90;11.40;;;4.80;99.90;;;;;;5023006;28;20435;-71
2021/03/22 05:38:53;;;;;;;25.03;12.47;;;4.80;99.90;;;;;;5014106;28;20760;-71
2021/03/22 05:41:22;;;;;;;19.27;10.93;;;4.80;99.90;;;;;;5014777;28;20213;-70
2021/03/22 05:44:15;;;;;;;16.73;11.83;;;4.80;99.90;;;;;;5015810;28;20205;-70
2021/03/22 05:46:57;;;;;;;21.93;11.63;;;4.80;99.90;;;;;;5035533;28;20412;-71
2021/03/22 05:49:49;;;;;;;22.87;13.00;;;4.80;99.90;;;;;;5034551;28;20421;-71
2021/03/22 05:52:18;;;;;;;25.63;12.17;;;4.80;99.90;;;;;;5006105;28;20742;-72
2021/03/22 05:54:46;;;;;;;24.40;13.07;;;4.80;99.90;;;;;;5012896;28;20450;-71
2021/03/22 05:57:50;;;;;;;26.80;13.63;;;4.80;99.90;;;;;;4998546;28;20912;-72
2021/03/22 06:00:15;;;;;;;22.90;12.10;;;4.90;99.90;;;;;;5013173;28;20497;-71
2021/03/22 06:03:10;;;;;;;23.57;12.90;;;4.90;99.90;;;;;;5012883;28;20426;-72
2021/03/22 06:05:42;;;;;;;23.47;13.90;;;5.10;99.90;;;;;;4988872;28;20642;-72
2021/03/22 06:08:23;;;;;;;36.10;16.07;;;5.10;99.90;;;;;;4996204;28;20884;-71
2021/03/22 06:10:51;;;;;;;25.47;15.33;;;5.00;99.90;;;;;;4995712;28;20489;-71
2021/03/22 06:13:25;;;;;;;24.20;14.30;;;5.10;99.90;;;;;;4995363;28;20465;-71
2021/03/22 06:16:28;;;;;;;30.47;15.90;;;5.10;99.90;;;;;;4995764;28;20418;-72
2021/03/22 06:19:08;;;;;;;24.30;13.97;;;5.20;99.90;;;;;;4971908;28;20415;-72
2021/03/22 06:21:37;;;;;;;28.03;14.57;;;5.30;99.90;;;;;;5011430;28;20438;-72
2021/03/22 06:24:22;;;;;;;25.13;16.30;;;5.30;99.90;;;;;;5014865;28;20430;-72
2021/03/22 06:26:56;;;;;;;24.00;13.30;;;5.20;99.90;;;;;;5014419;28;20413;-71
2021/03/22 06:29:34;;;;;;;24.83;14.33;;;5.20;99.90;;;;;;5013668;28;20430;-72
2021/03/22 06:32:05;;;;;;;22.47;14.40;;;5.30;99.90;;;;;;5012888;28;20468;-73
2021/03/22 06:34:59;;;;;;;25.47;13.10;;;5.30;99.90;;;;;;5025494;28;20528;-72
2021/03/22 06:37:31;;;;;;;24.00;12.80;;;5.20;99.90;;;;;;5007911;28;20415;-72
2021/03/22 06:40:12;;;;;;;24.97;14.57;;;5.20;99.90;;;;;;5014277;28;20434;-72
2021/03/22 06:42:39;;;;;;;24.53;14.03;;;5.30;99.90;;;;;;4993785;28;20549;-73
2021/03/22 06:45:29;;;;;;;21.97;13.73;;;5.20;99.90;;;;;;5000983;28;20437;-72
2021/03/22 06:48:28;;;;;;;26.07;14.60;;;5.20;99.90;;;;;;5012792;28;20418;-72
2021/03/22 06:51:20;;;;;;;27.70;15.43;;;5.10;99.90;;;;;;5013620;28;20935;-72
2021/03/22 06:53:49;;;;;;;23.80;16.10;;;5.10;99.90;;;;;;5014027;28;20821;-72
2021/03/22 06:56:14;;;;;;;24.27;15.43;;;5.10;99.90;;;;;;5013945;28;20418;-72
2021/03/22 06:58:41;;;;;;;29.50;17.20;;;5.10;99.90;;;;;;5013771;28;20411;-73
2021/03/22 07:01:15;;;;;;;23.17;16.20;;;5.10;99.90;;;;;;5012532;28;20198;-73
2021/03/22 07:03:41;;;;;;;22.57;15.70;;;5.10;99.90;;;;;;5013625;28;20420;-73
2021/03/22 07:06:15;;;;;;;30.33;16.93;;;5.10;99.90;;;;;;5013273;28;20417;-73
2021/03/22 07:08:50;;;;;;;27.37;15.90;;;5.20;99.90;;;;;;5013408;28;20195;-72
2021/03/22 07:11:25;;;;;;;24.63;16.53;;;5.30;99.90;;;;;;5011681;28;20461;-72
2021/03/22 07:14:04;;;;;;;23.00;16.10;;;5.40;99.90;;;;;;5013369;28;20464;-72
2021/03/22 07:16:32;;;;;;;22.63;15.27;;;5.30;99.90;;;;;;5015321;28;20517;-73
2021/03/22 07:19:06;;;;;;;21.30;15.47;;;5.30;99.90;;;;;;5016900;28;20411;-73
2021/03/22 07:21:33;;;;;;;21.70;14.80;;;5.40;99.90;;;;;;5016840;28;20514;-73
2021/03/22 07:24:06;;;;;;;24.30;14.50;;;5.30;99.90;;;;;;5016658;28;20493;-73
2021/03/22 07:26:50;;;;;;;18.47;12.67;;;5.20;99.90;;;;;;5017064;28;20413;-73
2021/03/22 07:29:42;;;;;;;17.77;13.00;;;5.20;99.90;;;;;;5016434;28;20448;-73
2021/03/22 07:32:26;;;;;;;22.80;14.77;;;5.10;99.90;;;;;;5017072;28;20470;-73
2021/03/22 07:35:10;;;;;;;24.07;13.40;;;5.20;99.90;;;;;;5016469;28;20464;-73
2021/03/22 07:37:52;;;;;;;18.90;13.03;;;5.30;99.90;;;;;;4997740;28;20413;-74
2021/03/22 07:40:44;;;;;;;22.20;14.20;;;5.50;99.90;;;;;;4995380;28;20579;-73
2021/03/22 07:43:47;;;;;;;21.07;13.10;;;5.60;99.90;;;;;;4987297;28;20525;-73
2021/03/22 07:46:31;;;;;;;16.90;11.67;;;5.80;99.90;;;;;;5015084;28;20424;-73
2021/03/22 07:49:23;;;;;;;20.67;12.50;;;5.90;99.90;;;;;;5015669;28;20418;-73
2021/03/22 07:51:59;;;;;;;17.10;10.40;;;6.00;99.90;;;;;;5016673;28;20461;-73
2021/03/22 07:54:52;;;;;;;15.67;9.40;;;5.90;99.90;;;;;;5016120;28;20486;-73
2021/03/22 07:57:44;;;;;;;12.37;9.67;;;5.70;99.90;;;;;;5016421;28;20742;-73
2021/03/22 08:00:29;;;;;;;14.40;8.90;;;5.70;99.90;;;;;;5014186;28;20584;-74
2021/03/22 08:03:26;;;;;;;16.50;10.50;;;5.60;99.90;;;;;;5015708;28;20959;-72
2021/03/22 08:06:06;;;;;;;16.43;10.60;;;5.50;99.90;;;;;;5014779;28;20516;-72
2021/03/22 08:08:44;;;;;;;13.20;11.10;;;5.50;99.90;;;;;;5014661;28;20493;-73
2021/03/22 08:11:32;;;;;;;14.40;11.10;;;5.50;99.90;;;;;;5015748;28;20428;-73
2021/03/22 08:14:13;;;;;;;15.57;11.43;;;5.30;99.90;;;;;;5015859;28;20569;-72
2021/03/22 08:17:15;;;;;;;15.87;11.70;;;5.50;99.90;;;;;;5016183;28;20914;-72
2021/03/22 08:20:05;;;;;;;20.43;12.00;;;5.50;99.90;;;;;;5015679;28;20879;-72
2021/03/22 08:22:50;;;;;;;15.40;10.77;;;5.60;99.90;;;;;;5021466;28;20403;-72
2021/03/22 08:25:37;;;;;;;14.03;10.37;;;5.60;99.90;;;;;;5020402;28;20382;-72
2021/03/22 08:28:18;;;;;;;15.30;10.83;;;5.70;99.90;;;;;;5020469;28;20417;-71
2021/03/22 08:31:12;;;;;;;13.50;10.27;;;5.80;99.90;;;;;;5019449;28;20449;-72
2021/03/22 08:33:44;;;;;;;16.93;11.23;;;5.80;99.90;;;;;;5021078;28;20526;-72
2021/03/22 08:36:41;;;;;;;16.70;10.30;;;5.80;99.90;;;;;;5029721;28;20452;-72
2021/03/22 08:39:24;;;;;;;14.23;10.10;;;5.80;99.90;;;;;;5034638;28;20406;-73
2021/03/22 08:42:01;;;;;;;16.53;11.40;;;5.90;99.90;;;;;;5035849;28;20448;-73
2021/03/22 08:44:33;;;;;;;18.17;9.57;;;6.00;99.90;;;;;;5031830;28;20411;-72
2021/03/22 08:47:05;;;;;;;11.17;9.97;;;5.90;99.90;;;;;;5015966;28;20434;-73
2021/03/22 08:49:56;;;;;;;11.27;8.80;;;6.10;99.90;;;;;;5016153;28;20739;-72
2021/03/22 08:52:32;;;;;;;13.77;9.60;;;6.10;99.90;;;;;;5015724;28;20399;-72
2021/03/22 08:55:08;;;;;;;11.43;9.30;;;6.10;99.90;;;;;;5016090;28;20560;-73
2021/03/22 08:58:04;;;;;;;11.30;9.33;;;6.20;99.90;;;;;;5014573;28;20926;-73
2021/03/22 09:00:43;;;;;;;11.30;8.47;;;6.20;99.90;;;;;;4994236;28;20910;-72
2021/03/22 09:03:14;;;;;;;10.37;7.70;;;6.20;99.90;;;;;;4979949;28;21028;-72
2021/03/22 09:05:42;;;;;;;10.77;8.27;;;6.00;99.90;;;;;;4997064;28;20442;-71
2021/03/22 09:08:22;;;;;;;12.10;8.40;;;6.00;99.90;;;;;;4998922;28;20423;-73
2021/03/22 09:10:52;;;;;;;9.77;7.37;;;6.00;99.90;;;;;;4994058;28;20459;-72
2021/03/22 09:13:37;;;;;;;12.13;7.50;;;6.00;99.90;;;;;;4994147;28;21006;-72
2021/03/22 09:16:14;;;;;;;9.93;7.20;;;6.10;99.90;;;;;;4994772;28;20506;-71
2021/03/22 09:19:10;;;;;;;10.60;6.90;;;6.00;99.90;;;;;;4995719;28;20427;-72
2021/03/22 09:21:43;;;;;;;11.47;7.30;;;6.00;99.90;;;;;;4980921;28;20435;-72
2021/03/22 09:24:38;;;;;;;13.07;7.93;;;6.00;99.90;;;;;;4999047;28;20419;-73
2021/03/22 09:27:24;;;;;;;10.73;7.10;;;6.00;99.90;;;;;;4938389;29;20418;-72
2021/03/22 09:29:57;;;;;;;9.53;6.73;;;6.10;99.90;;;;;;4943104;29;20438;-72
2021/03/22 09:32:25;;;;;;;10.93;6.37;;;6.20;99.90;;;;;;4950616;29;20446;-72
2021/03/22 09:35:14;;;;;;;8.57;6.60;;;6.30;99.90;;;;;;4955945;29;20454;-72
2021/03/22 09:38:03;;;;;;;11.63;7.60;;;6.40;99.90;;;;;;4947455;28;20464;-72
2021/03/22 09:40:29;;;;;;;11.87;8.23;;;6.50;99.90;;;;;;4957166;29;20455;-72
2021/03/22 09:43:11;;;;;;;11.60;9.00;;;6.50;99.90;;;;;;4957056;29;20504;-71
2021/03/22 09:45:55;;;;;;;11.87;9.03;;;6.50;99.90;;;;;;4957065;29;20422;-72
2021/03/22 09:48:30;;;;;;;9.97;8.63;;;6.60;99.90;;;;;;4956592;29;20432;-72
2021/03/22 09:51:02;;;;;;;10.57;8.93;;;6.60;99.90;;;;;;4955961;29;20425;-72
2021/03/22 09:53:34;;;;;;;9.87;8.50;;;6.70;99.90;;;;;;4956786;29;20452;-72
2021/03/22 09:56:08;;;;;;;10.60;7.73;;;6.80;99.90;;;;;;4956871;29;20417;-72
2021/03/22 09:58:45;;;;;;;8.43;7.63;;;6.80;99.90;;;;;;4956078;29;20427;-73
2021/03/22 10:01:28;;;;;;;9.57;8.03;;;6.90;99.90;;;;;;4938628;29;20488;-73
2021/03/22 10:04:16;;;;;;;10.80;7.80;;;6.90;99.90;;;;;;4977801;28;20823;-72
2021/03/22 10:06:42;;;;;;;9.67;7.40;;;7.00;99.90;;;;;;5013549;28;20463;-72
2021/03/22 10:09:22;;;;;;;8.43;7.53;;;7.00;99.90;;;;;;5013882;28;20434;-72
2021/03/22 10:11:50;;;;;;;11.30;8.23;;;7.00;99.90;;;;;;5012664;28;20555;-71
2021/03/22 10:14:47;;;;;;;9.30;7.70;;;6.90;99.90;;;;;;5013841;28;20450;-73
2021/03/22 10:17:28;;;;;;;11.07;7.80;;;6.80;99.90;;;;;;5012394;28;20473;-71
2021/03/22 10:20:02;;;;;;;9.90;8.47;;;6.90;99.90;;;;;;5012272;28;20442;-73
2021/03/22 10:22:28;;;;;;;10.40;8.57;;;7.00;99.90;;;;;;5012221;28;20775;-73
2021/03/22 10:25:09;;;;;;;13.77;9.60;;;7.10;99.90;;;;;;5012552;28;20876;-72
2021/03/22 10:27:38;;;;;;;11.60;9.20;;;7.00;99.90;;;;;;5012404;28;20417;-71
2021/03/22 10:30:21;;;;;;;10.70;9.27;;;7.10;99.90;;;;;;5011877;28;20438;-73
2021/03/22 10:32:54;;;;;;;19.30;10.30;;;7.10;99.90;;;;;;4995195;28;20502;-71
2021/03/22 10:35:21;;;;;;;15.27;9.30;;;7.10;99.90;;;;;;5008004;28;20466;-72
2021/03/22 10:37:52;;;;;;;8.70;7.80;;;7.20;99.90;;;;;;4975575;28;20420;-72
2021/03/22 10:40:29;;;;;;;8.53;7.73;;;7.30;99.90;;;;;;4992189;28;20630;-73
2021/03/22 10:42:57;;;;;;;8.40;7.60;;;7.30;99.90;;;;;;4992524;28;20409;-72
2021/03/22 10:45:22;;;;;;;10.17;6.80;;;7.30;99.90;;;;;;5003663;28;20422;-72
2021/03/22 10:47:49;;;;;;;7.60;6.00;;;7.30;99.90;;;;;;5011646;28;20513;-72
2021/03/22 10:50:20;;;;;;;7.60;6.80;;;7.20;99.90;;;;;;5015115;28;20195;-72
2021/03/22 10:53:12;;;;;;;8.80;6.70;;;7.30;99.90;;;;;;5016260;28;20498;-73
2021/03/22 10:55:40;;;;;;;8.07;6.53;;;7.30;99.90;;;;;;5017776;28;20433;-73
2021/03/22 10:58:21;;;;;;;7.70;6.90;;;7.30;99.90;;;;;;5017364;28;20497;-70
2021/03/22 11:00:47;;;;;;;8.53;6.67;;;7.40;99.90;;;;;;5018034;28;20916;-73
2021/03/22 11:03:23;;;;;;;8.40;6.90;;;7.60;99.90;;;;;;5017208;28;20489;-73
2021/03/22 11:05:49;;;;;;;6.73;5.70;;;7.60;99.90;;;;;;5017514;28;20397;-73
2021/03/22 11:08:32;;;;;;;8.07;6.20;;;7.60;99.90;;;;;;5017187;28;20487;-72
2021/03/22 11:11:09;;;;;;;5.90;4.60;;;7.60;99.90;;;;;;5017677;28;20428;-73
2021/03/22 11:13:41;;;;;;;5.03;4.60;;;7.60;99.90;;;;;;5016248;28;20508;-73
2021/03/22 11:16:08;;;;;;;6.30;4.67;;;7.50;99.90;;;;;;5018489;28;20403;-71
2021/03/22 11:18:35;;;;;;;5.20;4.70;;;7.60;99.90;;;;;;5017827;28;20407;-73
2021/03/22 11:21:01;;;;;;;5.60;5.10;;;7.60;99.90;;;;;;5017973;28;20422;-73
2021/03/22 11:23:30;;;;;;;6.30;4.60;;;7.80;99.90;;;;;;5017780;28;20420;-73
2021/03/22 11:26:22;;;;;;;5.83;5.03;;;7.90;99.90;;;;;;5017560;28;20407;-71
2021/03/22 11:28:48;;;;;;;4.73;4.33;;;8.00;99.90;;;;;;5017119;28;20442;-72
2021/03/22 11:31:28;;;;;;;5.43;4.40;;;8.10;99.90;;;;;;5017379;28;20783;-73
2021/03/22 11:34:14;;;;;;;4.43;4.03;;;8.10;99.90;;;;;;5015420;28;20569;-73
2021/03/22 11:36:43;;;;;;;4.90;4.40;;;8.10;99.90;;;;;;5030704;28;20491;-72
2021/03/22 11:39:26;;;;;;;4.63;4.10;;;8.20;99.90;;;;;;5036101;28;20405;-73
2021/03/22 11:41:52;;;;;;;5.90;4.93;;;8.30;99.90;;;;;;5036778;28;20432;-73
2021/03/22 11:44:32;;;;;;;6.90;5.10;;;8.30;99.90;;;;;;5033524;28;20406;-72
2021/03/22 11:47:35;;;;;;;5.77;5.17;;;8.20;99.90;;;;;;5016345;28;20201;-72
2021/03/22 11:50:24;;;;;;;5.43;4.83;;;8.00;99.90;;;;;;5016062;28;20510;-72
2021/03/22 11:53:06;;;;;;;6.13;5.30;;;8.10;99.90;;;;;;5012214;28;20445;-72
2021/03/22 11:55:49;;;;;;;6.40;5.80;;;8.20;99.90;;;;;;4998423;28;20417;-72
2021/03/22 11:58:29;;;;;;;7.10;6.43;;;8.20;99.90;;;;;;5000332;28;21074;-72
2021/03/22 12:00:55;;;;;;;7.10;6.60;;;8.20;99.90;;;;;;5014962;28;20449;-72
2021/03/22 12:03:30;;;;;;;7.27;6.63;;;8.20;99.90;;;;;;5017079;28;20466;-72
2021/03/22 12:06:11;;;;;;;8.30;6.43;;;8.20;99.90;;;;;;5017014;28;20432;-73
2021/03/22 12:08:43;;;;;;;7.33;5.80;;;8.20;99.90;;;;;;5015416;28;20449;-73
2021/03/22 12:11:15;;;;;;;6.97;6.27;;;8.10;99.90;;;;;;5016210;28;20996;-73
2021/03/22 12:13:41;;;;;;;6.20;5.60;;;8.10;99.90;;;;;;5015745;28;20780;-73
2021/03/22 12:16:07;;;;;;;6.17;5.63;;;8.10;99.90;;;;;;5015137;28;20422;-72
2021/03/22 12:18:37;;;;;;;6.40;5.30;;;8.00;99.90;;;;;;5015866;28;20212;-72
2021/03/22 12:21:07;;;;;;;6.50;5.83;;;8.00;99.90;;;;;;5016111;28;20812;-73
2021/03/22 12:23:33;;;;;;;4.73;4.43;;;8.00;99.90;;;;;;5015267;28;20468;-73
2021/03/22 12:25:58;;;;;;;5.00;4.50;;;8.00;99.90;;;;;;5015844;28;20419;-72
2021/03/22 12:28:24;;;;;;;5.23;4.37;;;8.10;99.90;;;;;;5016586;28;20222;-72
2021/03/22 12:30:50;;;;;;;5.70;4.57;;;8.20;99.90;;;;;;5017664;28;20201;-72
2021/03/22 12:33:27;;;;;;;6.33;4.57;;;8.20;99.90;;;;;;5015843;28;20870;-73
2021/03/22 12:35:53;;;;;;;8.90;5.73;;;8.20;99.90;;;;;;5023998;28;20172;-73
2021/03/22 12:38:19;;;;;;;7.80;4.93;;;8.30;99.90;;;;;;5035652;28;20420;-72
2021/03/22 12:40:46;;;;;;;5.83;5.20;;;8.40;99.90;;;;;;5034167;28;20241;-71
2021/03/22 12:43:24;;;;;;;8.40;6.07;;;8.30;99.90;;;;;;5023907;28;20508;-71
2021/03/22 12:45:50;;;;;;;7.90;5.70;;;8.20;99.90;;;;;;5015767;28;20403;-72
2021/03/22 12:48:16;;;;;;;7.33;6.00;;;8.20;99.90;;;;;;5015768;28;20415;-72
2021/03/22 12:50:43;;;;;;;6.13;5.10;;;8.30;99.90;;;;;;5017059;28;20431;-73
2021/03/22 12:53:09;;;;;;;7.10;5.70;;;8.30;99.90;;;;;;5016384;28;20675;-73
2021/03/22 12:55:36;;;;;;;6.30;5.00;;;8.40;99.90;;;;;;5016906;28;20816;-73
2021/03/22 12:58:11;;;;;;;4.40;3.43;;;8.50;99.90;;;;;;5021738;28;20507;-73
2021/03/22 13:00:36;;;;;;;9.13;4.30;;;8.40;99.90;;;;;;5034611;28;20431;-73
2021/03/22 13:03:02;;;;;;;3.77;3.47;;;8.40;99.90;;;;;;5034826;28;20481;-74
2021/03/22 13:05:33;;;;;;;4.20;3.57;;;8.40;99.90;;;;;;5034245;28;20163;-72
2021/03/22 13:07:58;;;;;;;4.47;3.40;;;8.30;99.90;;;;;;5036039;28;20177;-72
2021/03/22 13:10:31;;;;;;;5.00;3.30;;;8.30;99.90;;;;;;5033512;28;20934;-72
2021/03/22 13:12:57;;;;;;;5.50;3.33;;;8.20;99.90;;;;;;5015126;28;20175;-72
2021/03/22 13:15:31;;;;;;;4.87;2.80;;;8.20;99.90;;;;;;5013791;28;20473;-72
2021/03/22 13:17:58;;;;;;;2.40;2.20;;;8.10;99.90;;;;;;5015766;28;20435;-73
2021/03/22 13:20:26;;;;;;;4.20;2.07;;;8.10;99.90;;;;;;5015284;28;20507;-73